Happy Falcon — OXPC2 — position and weather

sailwx.info

Track history (hours):
 
Tides and Currents Weather Stations Pressure Air Temp Water Temp Dewpoint Dewpoint Depression Visibility Wind Speed Wind Dir Waves Ship Positions

Happy Falcon

Last reported at 2017-Nov-19 10:02 UTC. Time now 2017-Nov-19 12:23 UTC.
Position N 47°09' W 003°12'.

Length 96 m; draft 4.9 m.

Type: Ship. MMSI: 219876000.

Date/timePositionNaut miles runAvg speedWind from/ knotsBaromVisibWave heightAir tempDewpointWater temp
2017-Nov-19 10:02N 47°09' W 003°12'1410.1
2017-Nov-19 08:40N 47°15' W 003°30'210.2
2017-Nov-19 08:30N 47°16' W 003°32'510.2
2017-Nov-19 08:00N 47°18' W 003°39'5 9.9
2017-Nov-19 07:30N 47°21' W 003°46'510.1
2017-Nov-19 07:00N 47°23' W 003°52'612.9
2017-Nov-19 06:30N 47°26' W 004°01'713.1
2017-Nov-19 05:56N 47°29' W 004°11'1613.4
2017-Nov-19 04:45N 47°36' W 004°32'513.4
2017-Nov-19 04:23N 47°38' W 004°38'513.2
2017-Nov-19 03:59N 47°41' W 004°45'713.1
2017-Nov-19 03:27N 47°46' W 004°52'612.9
2017-Nov-19 03:00N 47°50' W 004°59'612.2
2017-Nov-19 02:30N 47°55' W 005°05'611.9
2017-Nov-19 01:59N 47°59' W 005°11'611.7
2017-Nov-19 01:30N 48°03' W 005°17'612.0
2017-Nov-19 00:59N 48°07' W 005°24'612.0
2017-Nov-19 00:30N 48°12' W 005°29'612.2
2017-Nov-18 23:59N 48°17' W 005°35'612.4
2017-Nov-18 23:30N 48°21' W 005°41'612.7
2017-Nov-18 23:00N 48°26' W 005°47'713.2
2017-Nov-18 22:31N 48°31' W 005°54'5411.3
2017-Nov-18 17:43N 49°11' W 004°60'1210.6
2017-Nov-18 16:36N 49°17' W 004°44'210.3
2017-Nov-18 16:22N 49°19' W 004°41'810.5
2017-Nov-18 15:39N 49°23' W 004°31'310.6
2017-Nov-18 15:21N 49°24' W 004°27'510.6
2017-Nov-18 14:56N 49°26' W 004°21'511.1
2017-Nov-18 14:28N 49°29' W 004°14'711.6
2017-Nov-18 13:52N 49°32' W 004°04'712.3
2017-Nov-18 13:17N 49°36' W 003°55'412.9
2017-Nov-18 12:57N 49°38' W 003°49'1013.7
2017-Nov-18 12:15N 49°43' W 003°36'613.9
2017-Nov-18 11:48N 49°46' W 003°28'513.9
2017-Nov-18 11:27N 49°48' W 003°22'813.6
2017-Nov-18 10:51N 49°53' W 003°11'513.3
2017-Nov-18 10:28N 49°55' W 003°04'613.3
2017-Nov-18 10:00N 49°58' W 002°56'912.6
2017-Nov-18 09:16N 50°01' W 002°42'3710.7
2017-Nov-18 05:46N 50°11' W 001°46'311.4
2017-Nov-18 05:30N 50°11' W 001°41'712.2
2017-Nov-18 04:57N 50°13' W 001°31'613.2
2017-Nov-18 04:30N 50°15' W 001°22'3615.2
2017-Nov-18 02:08N 50°24' W 000°27'215.3
2017-Nov-18 02:00N 50°25' W 000°24'815.0
2017-Nov-18 01:30N 50°27' W 000°13'714.7
2017-Nov-18 01:00N 50°29' W 000°02'714.4
2017-Nov-18 00:30N 50°31' E 000°09'714.1
2017-Nov-18 00:00N 50°33' E 000°20'713.8
2017-Nov-17 23:30N 50°35' E 000°30'713.2
2017-Nov-17 23:00N 50°37' E 000°40'612.7
2017-Nov-17 22:30N 50°41' E 000°48'612.6
2017-Nov-17 22:00N 50°45' E 000°55'612.7
2017-Nov-17 21:30N 50°49' E 001°04'712.7
2017-Nov-17 20:58N 50°53' E 001°12'613.1
2017-Nov-17 20:31N 50°56' E 001°20'814.6
2017-Nov-17 20:00N 51°02' E 001°28'816.1
2017-Nov-17 19:31N 51°08' E 001°36'816.4
2017-Nov-17 19:01N 51°13' E 001°46'816.0
2017-Nov-17 18:30N 51°20' E 001°52'612.8
2017-Nov-17 18:00N 51°25' E 001°60'713.6
2017-Nov-17 17:31N 51°22' E 002°10'713.4
2017-Nov-17 17:00N 51°21' E 002°20'813.9
2017-Nov-17 16:27N 51°23' E 002°32'713.8
2017-Nov-17 15:58N 51°23' E 002°43'612.2
2017-Nov-17 15:30N 51°22' E 002°52'713.6
2017-Nov-17 15:01N 51°22' E 003°03'713.5
2017-Nov-17 14:31N 51°23' E 003°13'713.4
2017-Nov-17 14:00N 51°25' E 003°24'713.4
2017-Nov-17 13:31N 51°26' E 003°35'611.1
2017-Nov-17 13:01N 51°23' E 003°43'611.9
2017-Nov-17 12:30N 51°21' E 003°51'510.5
2017-Nov-17 12:01N 51°24' E 003°57'3 6.2
2017-Nov-17 11:31N 51°24' E 004°02'510.1
2017-Nov-17 11:00N 51°24' E 004°10'510.3
2017-Nov-17 10:31N 51°20' E 004°16'4 7.6
2017-Nov-17 09:58N 51°17' E 004°20'0 0.0
2017-Nov-17 09:29N 51°17' E 004°20'0 0.0
2017-Nov-17 09:00N 51°17' E 004°20'1 1.8
2017-Nov-17 08:28N 51°16' E 004°20'0 0.0
2017-Nov-17 07:52N 51°16' E 004°20'0 0.0
2017-Nov-17 07:13N 51°16' E 004°20'0 0.0
2017-Nov-17 06:55N 51°16' E 004°20'0 0.0
2017-Nov-17 06:25N 51°16' E 004°20'0 0.0
2017-Nov-17 05:58N 51°16' E 004°20'0 0.0
2017-Nov-17 05:22N 51°16' E 004°20'0 0.0
2017-Nov-17 04:52N 51°16' E 004°20'0 0.0
2017-Nov-17 04:19N 51°16' E 004°20'0 0.0
2017-Nov-17 03:52N 51°16' E 004°20'0 0.0
2017-Nov-17 03:13N 51°16' E 004°20'0 0.0
2017-Nov-17 02:52N 51°16' E 004°20'0 0.0
2017-Nov-17 02:28N 51°16' E 004°20'0 0.0
2017-Nov-17 01:52N 51°16' E 004°20'0 0.0
2017-Nov-17 01:25N 51°16' E 004°20'0 0.0
2017-Nov-17 00:55N 51°16' E 004°20'0 0.0
2017-Nov-17 00:22N 51°16' E 004°20'0 0.0
2017-Nov-16 23:58N 51°16' E 004°20'0 0.0
2017-Nov-16 23:28N 51°16' E 004°20'0 0.0
2017-Nov-16 22:55N 51°16' E 004°20'0 0.0
2017-Nov-16 22:28N 51°16' E 004°20'0 0.0
2017-Nov-16 21:55N 51°16' E 004°20'0 0.0
2017-Nov-16 21:28N 51°16' E 004°20'0 0.0
2017-Nov-16 20:58N 51°16' E 004°20'0 0.0
2017-Nov-16 20:28N 51°16' E 004°20'0 0.0
2017-Nov-16 19:58N 51°16' E 004°20'0 0.0
2017-Nov-16 19:28N 51°16' E 004°20'0 0.0
2017-Nov-16 18:58N 51°16' E 004°20'0 0.0
2017-Nov-16 18:28N 51°16' E 004°20'0 0.0
2017-Nov-16 17:55N 51°16' E 004°20'0 0.0
2017-Nov-16 17:25N 51°16' E 004°20'0 0.0
2017-Nov-16 16:58N 51°16' E 004°20'0 0.0
2017-Nov-16 16:25N 51°16' E 004°20'0 0.0
2017-Nov-16 15:49N 51°16' E 004°20'0 0.0
2017-Nov-16 15:28N 51°16' E 004°20'0 0.0
2017-Nov-16 14:52N 51°16' E 004°20'0 0.0
2017-Nov-16 14:28N 51°16' E 004°20'0 0.0
2017-Nov-16 13:58N 51°16' E 004°20'0 0.0
2017-Nov-16 13:13N 51°16' E 004°20'0 0.0
2017-Nov-16 12:58N 51°16' E 004°20'0 0.0
2017-Nov-16 12:28N 51°16' E 004°20'0 0.0
2017-Nov-16 11:58N 51°16' E 004°20'0 0.0
2017-Nov-16 11:28N 51°16' E 004°20'0 0.0
2017-Nov-16 10:58N 51°16' E 004°20'0 0.0
2017-Nov-16 10:28N 51°16' E 004°20'0 0.0
2017-Nov-16 09:58N 51°16' E 004°20'0 0.0
2017-Nov-16 09:28N 51°16' E 004°20'0 0.0
2017-Nov-16 08:58N 51°16' E 004°20'0 0.0
2017-Nov-16 08:28N 51°16' E 004°20'0 0.0
2017-Nov-16 07:58N 51°16' E 004°20'0 0.0
2017-Nov-16 07:28N 51°16' E 004°20'0 0.0
2017-Nov-16 06:58N 51°16' E 004°20'0 0.0
2017-Nov-16 06:28N 51°16' E 004°20'0 0.0
2017-Nov-16 05:55N 51°16' E 004°20'0 0.0
2017-Nov-16 05:30N 51°16' E 004°20'1 1.3
2017-Nov-16 05:00N 51°16' E 004°20'4 7.5
2017-Nov-16 04:31N 51°20' E 004°18'1 2.3
2017-Nov-16 03:59N 51°21' E 004°17'0 0.0
2017-Nov-16 03:31N 51°21' E 004°17'0 0.9
2017-Nov-16 03:01N 51°21' E 004°16'1 2.6
2017-Nov-16 02:30N 51°21' E 004°14'4 7.4
2017-Nov-16 02:00N 51°22' E 004°09'5 9.7
2017-Nov-16 01:30N 51°25' E 004°02'3 6.4
2017-Nov-16 01:00N 51°23' E 003°57'510.5
2017-Nov-16 00:30N 51°21' E 003°50'510.3
2017-Nov-16 00:00N 51°23' E 003°43'4 8.6
2017-Nov-15 23:30N 51°26' E 003°37'510.5
2017-Nov-15 23:00N 51°25' E 003°29'611.7
2017-Nov-15 22:30N 51°24' E 003°20'612.4
2017-Nov-15 22:00N 51°24' E 003°10'713.7
2017-Nov-15 21:30N 51°23' E 002°59'713.5
2017-Nov-15 21:00N 51°22' E 002°48'611.2
2017-Nov-15 20:30N 51°22' E 002°39'3 6.5
2017-Nov-15 20:00N 51°20' E 002°35'0 0.0
2017-Nov-15 19:27N 51°20' E 002°35'0 0.0
2017-Nov-15 17:24N 51°20' E 002°35'0 0.0
2017-Nov-15 16:33N 51°20' E 002°35'0 0.1
2017-Nov-15 16:27N 51°20' E 002°35'0 0.1
2017-Nov-15 16:00N 51°20' E 002°35'0 0.0
2017-Nov-15 15:30N 51°20' E 002°34'0 0.1
2017-Nov-15 15:00N 51°20' E 002°35'0 0.1
2017-Nov-15 14:30N 51°20' E 002°35'0 0.0
2017-Nov-15 14:00N 51°20' E 002°35'0 0.0
2017-Nov-15 13:24N 51°20' E 002°35'0 0.0
2017-Nov-15 13:00N 51°20' E 002°35'0 0.0
2017-Nov-15 12:27N 51°20' E 002°35'0 0.0
2017-Nov-15 12:00N 51°20' E 002°35'0 0.0
2017-Nov-15 11:30N 51°20' E 002°35'0 0.0
2017-Nov-15 11:00N 51°20' E 002°35'0 0.0
2017-Nov-15 10:30N 51°20' E 002°35'0 0.0
2017-Nov-15 09:57N 51°20' E 002°35'0 0.0
2017-Nov-15 09:30N 51°20' E 002°35'0 0.1
2017-Nov-15 09:00N 51°20' E 002°35'0 0.0
2017-Nov-15 08:30N 51°20' E 002°35'0 0.1
2017-Nov-15 07:57N 51°20' E 002°35'0 0.1
2017-Nov-15 07:27N 51°20' E 002°34'0 0.0
2017-Nov-15 06:54N 51°20' E 002°34'0 0.0
2017-Nov-15 06:30N 51°20' E 002°34'0 0.0
2017-Nov-15 06:00N 51°20' E 002°34'0 0.0
2017-Nov-15 05:30N 51°20' E 002°34'0 0.0
2017-Nov-15 04:57N 51°20' E 002°34'0 0.0
2017-Nov-15 04:30N 51°20' E 002°34'0 0.0
2017-Nov-15 04:00N 51°20' E 002°35'0 0.0
2017-Nov-15 03:24N 51°20' E 002°35'0 0.2
2017-Nov-15 02:57N 51°20' E 002°35'0 0.2
2017-Nov-15 02:30N 51°20' E 002°35'0 0.0
2017-Nov-15 01:57N 51°20' E 002°35'0 0.0
2017-Nov-15 01:15N 51°20' E 002°35'0 0.0
2017-Nov-15 00:48N 51°20' E 002°35'0 0.0
2017-Nov-15 00:30N 51°20' E 002°35'0 0.1
2017-Nov-14 23:53N 51°20' E 002°35'2 5.1
2017-Nov-14 23:30N 51°22' E 002°33'5 8.8
2017-Nov-14 23:00N 51°21' E 002°26'5 9.3
2017-Nov-14 22:30N 51°19' E 002°20'5 9.7
2017-Nov-14 22:00N 51°16' E 002°13'5 9.8
2017-Nov-14 21:30N 51°14' E 002°06'5 9.8
2017-Nov-14 21:00N 51°11' E 001°59'510.1
2017-Nov-14 20:30N 51°09' E 001°52'510.5
2017-Nov-14 20:00N 51°06' E 001°46'510.7
2017-Nov-14 19:30N 51°02' E 001°40'611.5
2017-Nov-14 19:00N 50°58' E 001°34'7511.9
2017-Nov-14 12:43N 50°18' W 000°06'611.9
2017-Nov-14 12:12N 50°17' W 000°16'3211.4
2017-Nov-14 09:25N 50°09' W 001°04'611.5
2017-Nov-14 08:53N 50°07' W 001°13'512.0
2017-Nov-14 08:30N 50°06' W 001°20'611.9
2017-Nov-14 08:00N 50°04' W 001°29'612.5
2017-Nov-14 07:30N 50°03' W 001°38'713.9
2017-Nov-14 07:00N 50°01' W 001°49'714.6
2017-Nov-14 06:31N 49°59' W 001°60'7414.4
2017-Nov-14 01:24N 49°31' W 003°45'154 6.6
2017-Nov-13 01:51N 47°06' W 002°24'410.9
2017-Nov-13 01:30N 47°09' W 002°20'612.8
2017-Nov-13 01:00N 47°14' W 002°15'712.6
2017-Nov-13 00:28N 47°18' W 002°07'2 0.1
2017-Nov-12 07:35N 47°18' W 002°04'0 0.0
2017-Nov-12 00:24N 47°18' W 002°04'2 4.0
2017-Nov-12 00:00N 47°18' W 002°07'1412.5
2017-Nov-11 22:54N 47°08' W 002°21'2 5.8
2017-Nov-11 22:29N 47°08' W 002°24'1 0.1
2017-Nov-11 11:47N 47°08' W 002°25'0 0.2
2017-Nov-11 11:20N 47°08' W 002°26'0 0.2
2017-Nov-11 10:56N 47°08' W 002°26'0 0.1
2017-Nov-11 10:14N 47°08' W 002°26'0 0.1
2017-Nov-11 09:59N 47°08' W 002°26'0 0.1
2017-Nov-11 08:32N 47°08' W 002°26'0 0.0
2017-Nov-11 08:14N 47°08' W 002°26'0 0.1
2017-Nov-11 07:50N 47°08' W 002°26'0 0.1
2017-Nov-11 07:26N 47°08' W 002°26'0 0.0
2017-Nov-11 06:59N 47°08' W 002°26'0 0.0
2017-Nov-11 00:53N 47°08' W 002°26'0 0.0
2017-Nov-11 00:23N 47°08' W 002°26'0 0.0
2017-Nov-10 23:44N 47°08' W 002°26'0 0.0
2017-Nov-10 23:29N 47°08' W 002°26'0 0.0
2017-Nov-10 22:59N 47°08' W 002°26'0 0.0
2017-Nov-10 21:26N 47°08' W 002°26'0 0.1
2017-Nov-10 20:56N 47°08' W 002°26'0 0.0
2017-Nov-10 20:08N 47°08' W 002°26'0 0.0
2017-Nov-10 19:56N 47°08' W 002°26'0 0.1
2017-Nov-10 19:29N 47°08' W 002°26'0 0.1
2017-Nov-10 18:56N 47°08' W 002°26'0 0.0
2017-Nov-10 18:29N 47°08' W 002°26'0 0.0
2017-Nov-10 17:59N 47°08' W 002°26'0 0.0
2017-Nov-10 17:26N 47°08' W 002°26'0 0.0
2017-Nov-10 16:56N 47°08' W 002°26'0 0.0
2017-Nov-10 13:01N 47°08' W 002°26'0 2.3
2017-Nov-10 13:00N 47°08' W 002°26'25 8.6
2017-Nov-10 10:08N 47°06' W 003°02'711.0
2017-Nov-10 09:30N 47°09' W 003°12'1511.7
2017-Nov-10 08:13N 47°16' W 003°31'211.1
2017-Nov-10 08:00N 47°17' W 003°34'612.3
2017-Nov-10 07:30N 47°20' W 003°42'714.2
2017-Nov-10 06:59N 47°23' W 003°52'714.2
2017-Nov-10 06:30N 47°26' W 004°01'814.4
2017-Nov-10 05:57N 47°29' W 004°12'714.3
2017-Nov-10 05:28N 47°33' W 004°21'814.1
2017-Nov-10 04:55N 47°36' W 004°31'714.1
2017-Nov-10 04:26N 47°39' W 004°40'613.6
2017-Nov-10 04:01N 47°43' W 004°47'713.8
2017-Nov-10 03:30N 47°48' W 004°54'713.5
2017-Nov-10 03:00N 47°53' W 005°01'714.0
2017-Nov-10 02:30N 47°57' W 005°09'714.1
2017-Nov-10 02:00N 48°02' W 005°17'714.3
2017-Nov-10 01:30N 48°08' W 005°24'714.2
2017-Nov-10 01:00N 48°13' W 005°31'814.6
2017-Nov-10 00:28N 48°19' W 005°39'914.6
2017-Nov-09 23:50N 48°26' W 005°48'714.7
2017-Nov-09 23:20N 48°32' W 005°54'10511.5
2017-Nov-09 14:11N 49°38' W 003°50'1813.8
2017-Nov-09 12:53N 49°47' W 003°26'513.1
2017-Nov-09 12:30N 49°50' W 003°20'612.5
2017-Nov-09 12:00N 49°53' W 003°11'612.0
2017-Nov-09 11:30N 49°55' W 003°03'611.7
2017-Nov-09 11:01N 49°58' W 002°55'811.5
2017-Nov-09 10:21N 50°00' W 002°44'  
Track history (hours):
 
Tides and Currents Weather Stations Pressure Air Temp Water Temp Dewpoint Dewpoint Depression Visibility Wind Speed Wind Dir Waves Ship Positions

Happy Falcon

Last reported at 2017-Nov-19 10:02 UTC. Time now 2017-Nov-19 12:23 UTC.
Position N 47°09' W 003°12'.

Length 96 m; draft 4.9 m.

Type: Ship. MMSI: 219876000.

Date/timePositionNaut miles runAvg speedWind from/ knotsBaromVisibWave heightAir tempDewpointWater temp
2017-Nov-19 10:02N 47°09' W 003°12'1410.1
2017-Nov-19 08:40N 47°15' W 003°30'210.2
2017-Nov-19 08:30N 47°16' W 003°32'510.2
2017-Nov-19 08:00N 47°18' W 003°39'5 9.9
2017-Nov-19 07:30N 47°21' W 003°46'510.1
2017-Nov-19 07:00N 47°23' W 003°52'612.9
2017-Nov-19 06:30N 47°26' W 004°01'713.1
2017-Nov-19 05:56N 47°29' W 004°11'1613.4
2017-Nov-19 04:45N 47°36' W 004°32'513.4
2017-Nov-19 04:23N 47°38' W 004°38'513.2
2017-Nov-19 03:59N 47°41' W 004°45'713.1
2017-Nov-19 03:27N 47°46' W 004°52'612.9
2017-Nov-19 03:00N 47°50' W 004°59'612.2
2017-Nov-19 02:30N 47°55' W 005°05'611.9
2017-Nov-19 01:59N 47°59' W 005°11'611.7
2017-Nov-19 01:30N 48°03' W 005°17'612.0
2017-Nov-19 00:59N 48°07' W 005°24'612.0
2017-Nov-19 00:30N 48°12' W 005°29'612.2
2017-Nov-18 23:59N 48°17' W 005°35'612.4
2017-Nov-18 23:30N 48°21' W 005°41'612.7
2017-Nov-18 23:00N 48°26' W 005°47'713.2
2017-Nov-18 22:31N 48°31' W 005°54'5411.3
2017-Nov-18 17:43N 49°11' W 004°60'1210.6
2017-Nov-18 16:36N 49°17' W 004°44'210.3
2017-Nov-18 16:22N 49°19' W 004°41'810.5
2017-Nov-18 15:39N 49°23' W 004°31'310.6
2017-Nov-18 15:21N 49°24' W 004°27'510.6
2017-Nov-18 14:56N 49°26' W 004°21'511.1
2017-Nov-18 14:28N 49°29' W 004°14'711.6
2017-Nov-18 13:52N 49°32' W 004°04'712.3
2017-Nov-18 13:17N 49°36' W 003°55'412.9
2017-Nov-18 12:57N 49°38' W 003°49'1013.7
2017-Nov-18 12:15N 49°43' W 003°36'613.9
2017-Nov-18 11:48N 49°46' W 003°28'513.9
2017-Nov-18 11:27N 49°48' W 003°22'813.6
2017-Nov-18 10:51N 49°53' W 003°11'513.3
2017-Nov-18 10:28N 49°55' W 003°04'613.3
2017-Nov-18 10:00N 49°58' W 002°56'912.6
2017-Nov-18 09:16N 50°01' W 002°42'3710.7
2017-Nov-18 05:46N 50°11' W 001°46'311.4
2017-Nov-18 05:30N 50°11' W 001°41'712.2
2017-Nov-18 04:57N 50°13' W 001°31'613.2
2017-Nov-18 04:30N 50°15' W 001°22'3615.2
2017-Nov-18 02:08N 50°24' W 000°27'215.3
2017-Nov-18 02:00N 50°25' W 000°24'815.0
2017-Nov-18 01:30N 50°27' W 000°13'714.7
2017-Nov-18 01:00N 50°29' W 000°02'714.4
2017-Nov-18 00:30N 50°31' E 000°09'714.1
2017-Nov-18 00:00N 50°33' E 000°20'713.8
2017-Nov-17 23:30N 50°35' E 000°30'713.2
2017-Nov-17 23:00N 50°37' E 000°40'612.7
2017-Nov-17 22:30N 50°41' E 000°48'612.6
2017-Nov-17 22:00N 50°45' E 000°55'612.7
2017-Nov-17 21:30N 50°49' E 001°04'712.7
2017-Nov-17 20:58N 50°53' E 001°12'613.1
2017-Nov-17 20:31N 50°56' E 001°20'814.6
2017-Nov-17 20:00N 51°02' E 001°28'816.1
2017-Nov-17 19:31N 51°08' E 001°36'816.4
2017-Nov-17 19:01N 51°13' E 001°46'816.0
2017-Nov-17 18:30N 51°20' E 001°52'612.8
2017-Nov-17 18:00N 51°25' E 001°60'713.6
2017-Nov-17 17:31N 51°22' E 002°10'713.4
2017-Nov-17 17:00N 51°21' E 002°20'813.9
2017-Nov-17 16:27N 51°23' E 002°32'713.8
2017-Nov-17 15:58N 51°23' E 002°43'612.2
2017-Nov-17 15:30N 51°22' E 002°52'713.6
2017-Nov-17 15:01N 51°22' E 003°03'713.5
2017-Nov-17 14:31N 51°23' E 003°13'713.4
2017-Nov-17 14:00N 51°25' E 003°24'713.4
2017-Nov-17 13:31N 51°26' E 003°35'611.1
2017-Nov-17 13:01N 51°23' E 003°43'611.9
2017-Nov-17 12:30N 51°21' E 003°51'510.5
2017-Nov-17 12:01N 51°24' E 003°57'3 6.2
2017-Nov-17 11:31N 51°24' E 004°02'510.1
2017-Nov-17 11:00N 51°24' E 004°10'510.3
2017-Nov-17 10:31N 51°20' E 004°16'4 7.6
2017-Nov-17 09:58N 51°17' E 004°20'0 0.0
2017-Nov-17 09:29N 51°17' E 004°20'0 0.0
2017-Nov-17 09:00N 51°17' E 004°20'1 1.8
2017-Nov-17 08:28N 51°16' E 004°20'0 0.0
2017-Nov-17 07:52N 51°16' E 004°20'0 0.0
2017-Nov-17 07:13N 51°16' E 004°20'0 0.0
2017-Nov-17 06:55N 51°16' E 004°20'0 0.0
2017-Nov-17 06:25N 51°16' E 004°20'0 0.0
2017-Nov-17 05:58N 51°16' E 004°20'0 0.0
2017-Nov-17 05:22N 51°16' E 004°20'0 0.0
2017-Nov-17 04:52N 51°16' E 004°20'0 0.0
2017-Nov-17 04:19N 51°16' E 004°20'0 0.0
2017-Nov-17 03:52N 51°16' E 004°20'0 0.0
2017-Nov-17 03:13N 51°16' E 004°20'0 0.0
2017-Nov-17 02:52N 51°16' E 004°20'0 0.0
2017-Nov-17 02:28N 51°16' E 004°20'0 0.0
2017-Nov-17 01:52N 51°16' E 004°20'0 0.0
2017-Nov-17 01:25N 51°16' E 004°20'0 0.0
2017-Nov-17 00:55N 51°16' E 004°20'0 0.0
2017-Nov-17 00:22N 51°16' E 004°20'0 0.0
2017-Nov-16 23:58N 51°16' E 004°20'0 0.0
2017-Nov-16 23:28N 51°16' E 004°20'0 0.0
2017-Nov-16 22:55N 51°16' E 004°20'0 0.0
2017-Nov-16 22:28N 51°16' E 004°20'0 0.0
2017-Nov-16 21:55N 51°16' E 004°20'0 0.0
2017-Nov-16 21:28N 51°16' E 004°20'0 0.0
2017-Nov-16 20:58N 51°16' E 004°20'0 0.0
2017-Nov-16 20:28N 51°16' E 004°20'0 0.0
2017-Nov-16 19:58N 51°16' E 004°20'0 0.0
2017-Nov-16 19:28N 51°16' E 004°20'0 0.0
2017-Nov-16 18:58N 51°16' E 004°20'0 0.0
2017-Nov-16 18:28N 51°16' E 004°20'0 0.0
2017-Nov-16 17:55N 51°16' E 004°20'0 0.0
2017-Nov-16 17:25N 51°16' E 004°20'0 0.0
2017-Nov-16 16:58N 51°16' E 004°20'0 0.0
2017-Nov-16 16:25N 51°16' E 004°20'0 0.0
2017-Nov-16 15:49N 51°16' E 004°20'0 0.0
2017-Nov-16 15:28N 51°16' E 004°20'0 0.0
2017-Nov-16 14:52N 51°16' E 004°20'0 0.0
2017-Nov-16 14:28N 51°16' E 004°20'0 0.0
2017-Nov-16 13:58N 51°16' E 004°20'0 0.0
2017-Nov-16 13:13N 51°16' E 004°20'0 0.0
2017-Nov-16 12:58N 51°16' E 004°20'0 0.0
2017-Nov-16 12:28N 51°16' E 004°20'0 0.0
2017-Nov-16 11:58N 51°16' E 004°20'0 0.0
2017-Nov-16 11:28N 51°16' E 004°20'0 0.0
2017-Nov-16 10:58N 51°16' E 004°20'0 0.0
2017-Nov-16 10:28N 51°16' E 004°20'0 0.0
2017-Nov-16 09:58N 51°16' E 004°20'0 0.0
2017-Nov-16 09:28N 51°16' E 004°20'0 0.0
2017-Nov-16 08:58N 51°16' E 004°20'0 0.0
2017-Nov-16 08:28N 51°16' E 004°20'0 0.0
2017-Nov-16 07:58N 51°16' E 004°20'0 0.0
2017-Nov-16 07:28N 51°16' E 004°20'0 0.0
2017-Nov-16 06:58N 51°16' E 004°20'0 0.0
2017-Nov-16 06:28N 51°16' E 004°20'0 0.0
2017-Nov-16 05:55N 51°16' E 004°20'0 0.0
2017-Nov-16 05:30N 51°16' E 004°20'1 1.3
2017-Nov-16 05:00N 51°16' E 004°20'4 7.5
2017-Nov-16 04:31N 51°20' E 004°18'1 2.3
2017-Nov-16 03:59N 51°21' E 004°17'0 0.0
2017-Nov-16 03:31N 51°21' E 004°17'0 0.9
2017-Nov-16 03:01N 51°21' E 004°16'1 2.6
2017-Nov-16 02:30N 51°21' E 004°14'4 7.4
2017-Nov-16 02:00N 51°22' E 004°09'5 9.7
2017-Nov-16 01:30N 51°25' E 004°02'3 6.4
2017-Nov-16 01:00N 51°23' E 003°57'510.5
2017-Nov-16 00:30N 51°21' E 003°50'510.3
2017-Nov-16 00:00N 51°23' E 003°43'4 8.6
2017-Nov-15 23:30N 51°26' E 003°37'510.5
2017-Nov-15 23:00N 51°25' E 003°29'611.7
2017-Nov-15 22:30N 51°24' E 003°20'612.4
2017-Nov-15 22:00N 51°24' E 003°10'713.7
2017-Nov-15 21:30N 51°23' E 002°59'713.5
2017-Nov-15 21:00N 51°22' E 002°48'611.2
2017-Nov-15 20:30N 51°22' E 002°39'3 6.5
2017-Nov-15 20:00N 51°20' E 002°35'0 0.0
2017-Nov-15 19:27N 51°20' E 002°35'0 0.0
2017-Nov-15 17:24N 51°20' E 002°35'0 0.0
2017-Nov-15 16:33N 51°20' E 002°35'0 0.1
2017-Nov-15 16:27N 51°20' E 002°35'0 0.1
2017-Nov-15 16:00N 51°20' E 002°35'0 0.0
2017-Nov-15 15:30N 51°20' E 002°34'0 0.1
2017-Nov-15 15:00N 51°20' E 002°35'0 0.1
2017-Nov-15 14:30N 51°20' E 002°35'0 0.0
2017-Nov-15 14:00N 51°20' E 002°35'0 0.0
2017-Nov-15 13:24N 51°20' E 002°35'0 0.0
2017-Nov-15 13:00N 51°20' E 002°35'0 0.0
2017-Nov-15 12:27N 51°20' E 002°35'0 0.0
2017-Nov-15 12:00N 51°20' E 002°35'0 0.0
2017-Nov-15 11:30N 51°20' E 002°35'0 0.0
2017-Nov-15 11:00N 51°20' E 002°35'0 0.0
2017-Nov-15 10:30N 51°20' E 002°35'0 0.0
2017-Nov-15 09:57N 51°20' E 002°35'0 0.0
2017-Nov-15 09:30N 51°20' E 002°35'0 0.1
2017-Nov-15 09:00N 51°20' E 002°35'0 0.0
2017-Nov-15 08:30N 51°20' E 002°35'0 0.1
2017-Nov-15 07:57N 51°20' E 002°35'0 0.1
2017-Nov-15 07:27N 51°20' E 002°34'0 0.0
2017-Nov-15 06:54N 51°20' E 002°34'0 0.0
2017-Nov-15 06:30N 51°20' E 002°34'0 0.0
2017-Nov-15 06:00N 51°20' E 002°34'0 0.0
2017-Nov-15 05:30N 51°20' E 002°34'0 0.0
2017-Nov-15 04:57N 51°20' E 002°34'0 0.0
2017-Nov-15 04:30N 51°20' E 002°34'0 0.0
2017-Nov-15 04:00N 51°20' E 002°35'0 0.0
2017-Nov-15 03:24N 51°20' E 002°35'0 0.2
2017-Nov-15 02:57N 51°20' E 002°35'0 0.2
2017-Nov-15 02:30N 51°20' E 002°35'0 0.0
2017-Nov-15 01:57N 51°20' E 002°35'0 0.0
2017-Nov-15 01:15N 51°20' E 002°35'0 0.0
2017-Nov-15 00:48N 51°20' E 002°35'0 0.0
2017-Nov-15 00:30N 51°20' E 002°35'0 0.1
2017-Nov-14 23:53N 51°20' E 002°35'2 5.1
2017-Nov-14 23:30N 51°22' E 002°33'5 8.8
2017-Nov-14 23:00N 51°21' E 002°26'5 9.3
2017-Nov-14 22:30N 51°19' E 002°20'5 9.7
2017-Nov-14 22:00N 51°16' E 002°13'5 9.8
2017-Nov-14 21:30N 51°14' E 002°06'5 9.8
2017-Nov-14 21:00N 51°11' E 001°59'510.1
2017-Nov-14 20:30N 51°09' E 001°52'510.5
2017-Nov-14 20:00N 51°06' E 001°46'510.7
2017-Nov-14 19:30N 51°02' E 001°40'611.5
2017-Nov-14 19:00N 50°58' E 001°34'7511.9
2017-Nov-14 12:43N 50°18' W 000°06'611.9
2017-Nov-14 12:12N 50°17' W 000°16'3211.4
2017-Nov-14 09:25N 50°09' W 001°04'611.5
2017-Nov-14 08:53N 50°07' W 001°13'512.0
2017-Nov-14 08:30N 50°06' W 001°20'611.9
2017-Nov-14 08:00N 50°04' W 001°29'612.5
2017-Nov-14 07:30N 50°03' W 001°38'713.9
2017-Nov-14 07:00N 50°01' W 001°49'714.6
2017-Nov-14 06:31N 49°59' W 001°60'7414.4
2017-Nov-14 01:24N 49°31' W 003°45'154 6.6
2017-Nov-13 01:51N 47°06' W 002°24'410.9
2017-Nov-13 01:30N 47°09' W 002°20'612.8
2017-Nov-13 01:00N 47°14' W 002°15'712.6
2017-Nov-13 00:28N 47°18' W 002°07'2 0.1
2017-Nov-12 07:35N 47°18' W 002°04'0 0.0
2017-Nov-12 00:24N 47°18' W 002°04'2 4.0
2017-Nov-12 00:00N 47°18' W 002°07'1412.5
2017-Nov-11 22:54N 47°08' W 002°21'2 5.8
2017-Nov-11 22:29N 47°08' W 002°24'1 0.1
2017-Nov-11 11:47N 47°08' W 002°25'0 0.2
2017-Nov-11 11:20N 47°08' W 002°26'0 0.2
2017-Nov-11 10:56N 47°08' W 002°26'0 0.1
2017-Nov-11 10:14N 47°08' W 002°26'0 0.1
2017-Nov-11 09:59N 47°08' W 002°26'0 0.1
2017-Nov-11 08:32N 47°08' W 002°26'0 0.0
2017-Nov-11 08:14N 47°08' W 002°26'0 0.1
2017-Nov-11 07:50N 47°08' W 002°26'0 0.1
2017-Nov-11 07:26N 47°08' W 002°26'0 0.0
2017-Nov-11 06:59N 47°08' W 002°26'0 0.0
2017-Nov-11 00:53N 47°08' W 002°26'0 0.0
2017-Nov-11 00:23N 47°08' W 002°26'0 0.0
2017-Nov-10 23:44N 47°08' W 002°26'0 0.0
2017-Nov-10 23:29N 47°08' W 002°26'0 0.0
2017-Nov-10 22:59N 47°08' W 002°26'0 0.0
2017-Nov-10 21:26N 47°08' W 002°26'0 0.1
2017-Nov-10 20:56N 47°08' W 002°26'0 0.0
2017-Nov-10 20:08N 47°08' W 002°26'0 0.0
2017-Nov-10 19:56N 47°08' W 002°26'0 0.1
2017-Nov-10 19:29N 47°08' W 002°26'0 0.1
2017-Nov-10 18:56N 47°08' W 002°26'0 0.0
2017-Nov-10 18:29N 47°08' W 002°26'0 0.0
2017-Nov-10 17:59N 47°08' W 002°26'0 0.0
2017-Nov-10 17:26N 47°08' W 002°26'0 0.0
2017-Nov-10 16:56N 47°08' W 002°26'0 0.0
2017-Nov-10 13:01N 47°08' W 002°26'0 2.3
2017-Nov-10 13:00N 47°08' W 002°26'25 8.6
2017-Nov-10 10:08N 47°06' W 003°02'711.0
2017-Nov-10 09:30N 47°09' W 003°12'1511.7
2017-Nov-10 08:13N 47°16' W 003°31'211.1
2017-Nov-10 08:00N 47°17' W 003°34'612.3
2017-Nov-10 07:30N 47°20' W 003°42'714.2
2017-Nov-10 06:59N 47°23' W 003°52'714.2
2017-Nov-10 06:30N 47°26' W 004°01'814.4
2017-Nov-10 05:57N 47°29' W 004°12'714.3
2017-Nov-10 05:28N 47°33' W 004°21'814.1
2017-Nov-10 04:55N 47°36' W 004°31'714.1
2017-Nov-10 04:26N 47°39' W 004°40'613.6
2017-Nov-10 04:01N 47°43' W 004°47'713.8
2017-Nov-10 03:30N 47°48' W 004°54'713.5
2017-Nov-10 03:00N 47°53' W 005°01'714.0
2017-Nov-10 02:30N 47°57' W 005°09'714.1
2017-Nov-10 02:00N 48°02' W 005°17'714.3
2017-Nov-10 01:30N 48°08' W 005°24'714.2
2017-Nov-10 01:00N 48°13' W 005°31'814.6
2017-Nov-10 00:28N 48°19' W 005°39'914.6
2017-Nov-09 23:50N 48°26' W 005°48'714.7
2017-Nov-09 23:20N 48°32' W 005°54'10511.5
2017-Nov-09 14:11N 49°38' W 003°50'1813.8
2017-Nov-09 12:53N 49°47' W 003°26'513.1
2017-Nov-09 12:30N 49°50' W 003°20'612.5
2017-Nov-09 12:00N 49°53' W 003°11'612.0
2017-Nov-09 11:30N 49°55' W 003°03'611.7
2017-Nov-09 11:01N 49°58' W 002°55'811.5
2017-Nov-09 10:21N 50°00' W 002°44'  

Dump ship's entire track history